Time;durP1;ratioP1;P1;durP2;ratioP2;P2;SDS_P1;SDS_P2;PMS_P1;PMS_P2;Temp;Humidity;BMP_temperature;BMP_pressure;BME280_temperature;BME280_humidity;BME280_pressure;Samples;Min_cycle;Max_cycle;Signal;HPM_P1;HPM_P2
2024/03/19 00:01:18;;;;;;;;;;;3.90;70.90;;;;;;5111968;28;20038;-72
2024/03/19 00:03:44;;;;;;;4.30;1.80;;;3.90;70.60;;;;;;5112975;28;19904;-72
2024/03/19 00:06:10;;;;;;;;;;;3.90;69.80;;;;;;5111796;28;20577;-72
2024/03/19 00:08:36;;;;;;;4.63;1.70;;;4.00;69.30;;;;;;5112577;28;19903;-72
2024/03/19 00:11:02;;;;;;;;;;;3.90;70.10;;;;;;5094866;28;20024;-73
2024/03/19 00:13:27;;;;;;;7.32;1.73;;;3.90;70.20;;;;;;5111354;28;19990;-72
2024/03/19 00:15:53;;;;;;;;;;;3.90;69.60;;;;;;5094641;28;20028;-72
2024/03/19 00:18:18;;;;;;;5.60;1.98;;;3.90;69.70;;;;;;5111393;28;20303;-72
2024/03/19 00:20:44;;;;;;;;;;;3.90;69.30;;;;;;5111547;28;20136;-72
2024/03/19 00:23:09;;;;;;;;;;;3.90;68.70;;;;;;5111597;28;19990;-72
2024/03/19 00:25:35;;;;;;;;;;;3.80;69.50;;;;;;5112807;28;20010;-73
2024/03/19 00:28:01;;;;;;;;;;;3.80;70.10;;;;;;5111370;28;19922;-73
2024/03/19 00:30:27;;;;;;;;;;;3.70;70.50;;;;;;5112895;28;19907;-72
2024/03/19 00:32:52;;;;;;;;;;;3.80;69.80;;;;;;5111696;28;19958;-72
2024/03/19 00:35:18;;;;;;;;;;;3.70;70.10;;;;;;5112393;28;20324;-72
2024/03/19 00:37:44;;;;;;;;;;;3.70;70.70;;;;;;5112499;28;19948;-72
2024/03/19 00:40:12;;;;;;;;;;;3.70;71.00;;;;;;5112494;28;20300;-73
2024/03/19 00:42:43;;;;;;;;;;;3.80;70.50;;;;;;5111215;28;20372;-72
2024/03/19 00:45:09;;;;;;;;;;;3.80;70.70;;;;;;5112707;28;19904;-72
2024/03/19 00:47:34;;;;;;;;;;;3.80;71.20;;;;;;5117657;28;19919;-74
2024/03/19 00:50:00;;;;;;;;;;;3.80;70.90;;;;;;5120889;28;20031;-72
2024/03/19 00:52:26;;;;;;;;;;;3.80;71.10;;;;;;5111761;28;19903;-73
2024/03/19 00:54:52;;;;;;;;;;;3.70;71.60;;;;;;5117791;28;20292;-73
2024/03/19 00:57:17;;;;;;;;;;;3.70;72.80;;;;;;5121019;28;19907;-72
2024/03/19 00:59:43;;;;;;;;;;;3.70;73.60;;;;;;5119498;28;19904;-72
2024/03/19 01:02:10;;;;;;;;;;;3.70;74.50;;;;;;5111275;28;20408;-72
2024/03/19 01:04:35;;;;;;;;;;;3.70;74.70;;;;;;5112465;28;19908;-71
2024/03/19 01:07:01;;;;;;;;;;;3.80;75.60;;;;;;5110836;28;19915;-73
2024/03/19 01:09:27;;;;;;;;;;;3.70;75.60;;;;;;5111901;28;20014;-72
2024/03/19 01:11:53;;;;;;;;;;;3.70;75.50;;;;;;5111982;28;20006;-72
2024/03/19 01:14:18;;;;;;;;;;;3.70;75.40;;;;;;5112052;28;20349;-73
2024/03/19 01:16:44;;;;;;;;;;;3.70;75.50;;;;;;5110814;28;19907;-73
2024/03/19 01:19:09;;;;;;;;;;;3.80;75.60;;;;;;5110579;28;19908;-72
2024/03/19 01:21:36;;;;;;;;;;;3.80;75.90;;;;;;5111809;28;19942;-72
2024/03/19 01:24:02;;;;;;;;;;;3.80;76.80;;;;;;5110278;28;19919;-73
2024/03/19 01:26:27;;;;;;;;;;;3.80;77.20;;;;;;5111640;28;20346;-73
2024/03/19 01:28:53;;;;;;;;;;;3.70;77.30;;;;;;5110169;28;20450;-73
2024/03/19 01:31:18;;;;;;;;;;;3.80;76.90;;;;;;5110254;28;19908;-72
2024/03/19 01:33:44;;;;;;;;;;;3.70;76.10;;;;;;5110573;28;20394;-73
2024/03/19 01:36:09;;;;;;;;;;;3.80;76.60;;;;;;5111440;28;19908;-73
2024/03/19 01:38:36;;;;;;;;;;;3.80;77.20;;;;;;5111330;28;19907;-72
2024/03/19 01:41:03;;;;;;;;;;;3.70;77.30;;;;;;5110043;28;20451;-72
2024/03/19 01:43:29;;;;;;;;;;;3.70;77.90;;;;;;5111316;28;19972;-73
2024/03/19 01:46:06;;;;;;;;;;;3.70;78.20;;;;;;5111275;28;19912;-72
2024/03/19 01:48:36;;;;;;;;;;;3.70;78.10;;;;;;5110204;28;19911;-73
2024/03/19 01:51:02;;;;;;;;;;;3.70;78.00;;;;;;5110052;28;19908;-71
2024/03/19 01:53:28;;;;;;;;;;;3.70;77.90;;;;;;5109758;28;19995;-74
2024/03/19 01:55:54;;;;;;;;;;;3.80;77.90;;;;;;5093329;28;20451;-72
2024/03/19 01:58:21;;;;;;;;;;;3.80;78.30;;;;;;5112531;28;19907;-72
2024/03/19 02:00:46;;;;;;;;;;;3.80;78.70;;;;;;5111579;28;20014;-72
2024/03/19 02:03:13;;;;;;;;;;;3.80;78.80;;;;;;5109147;28;20002;-72
2024/03/19 02:05:39;;;;;;;;;;;3.70;79.60;;;;;;5109404;28;19953;-73
2024/03/19 02:08:05;;;;;;;;;;;3.80;80.10;;;;;;5110861;28;19920;-73
2024/03/19 02:10:30;;;;;;;;;;;3.70;80.80;;;;;;5110824;28;20376;-71
2024/03/19 02:12:56;;;;;;;;;;;3.70;80.30;;;;;;5109547;28;19918;-72
2024/03/19 02:15:21;;;;;;;;;;;3.70;80.80;;;;;;5109459;28;19908;-72
2024/03/19 02:17:47;;;;;;;;;;;3.60;81.20;;;;;;5109305;28;19916;-72
2024/03/19 02:20:12;;;;;;;;;;;3.60;82.00;;;;;;5109139;28;19920;-73
2024/03/19 02:22:46;;;;;;;;;;;3.60;82.50;;;;;;5092748;28;19907;-72
2024/03/19 02:25:12;;;;;;;;;;;3.60;83.50;;;;;;5109044;28;20414;-72
2024/03/19 02:27:38;;;;;;;;;;;3.60;84.90;;;;;;5091913;28;19967;-72
2024/03/19 02:30:05;;;;;;;;;;;3.60;85.90;;;;;;5110562;28;19907;-72
2024/03/19 02:32:31;;;;;;;;;;;3.50;86.20;;;;;;5110629;28;19915;-72
2024/03/19 02:34:56;;;;;;;;;;;3.50;86.60;;;;;;5112034;28;19908;-72
2024/03/19 02:37:22;;;;;;;;;;;3.50;87.40;;;;;;5115457;28;19915;-72
2024/03/19 02:39:47;;;;;;;;;;;3.50;87.80;;;;;;5113325;28;19954;-72
2024/03/19 02:42:13;;;;;;;;;;;3.50;88.30;;;;;;5109052;28;19950;-73
2024/03/19 02:44:39;;;;;;;;;;;3.40;88.60;;;;;;5110486;28;19935;-72
2024/03/19 02:47:05;;;;;;;;;;;3.40;89.50;;;;;;5109098;28;19912;-70
2024/03/19 02:49:30;;;;;;;;;;;3.40;89.60;;;;;;5108995;28;19915;-71
2024/03/19 02:51:56;;;;;;;;;;;3.40;90.30;;;;;;5110134;28;19914;-70
2024/03/19 02:54:21;;;;;;;;;;;3.40;90.50;;;;;;5110349;28;19943;-71
2024/03/19 02:56:47;;;;;;;;;;;3.40;90.40;;;;;;5110178;28;19914;-72
2024/03/19 02:59:12;;;;;;;;;;;3.40;90.60;;;;;;5108987;28;19942;-71
2024/03/19 03:01:38;;;;;;;;;;;3.40;90.80;;;;;;5110289;28;19995;-70
2024/03/19 03:04:04;;;;;;;;;;;3.40;91.00;;;;;;5108878;28;20014;-71
2024/03/19 03:06:30;;;;;;;;;;;3.40;91.60;;;;;;5110073;28;19919;-72
2024/03/19 03:08:56;;;;;;;;;;;3.40;91.90;;;;;;5110273;28;19921;-72
2024/03/19 03:11:21;;;;;;;;;;;3.40;92.20;;;;;;5108777;28;20384;-71
2024/03/19 03:13:47;;;;;;;;;;;3.30;92.10;;;;;;5110071;28;19931;-71
2024/03/19 03:16:13;;;;;;;;;;;3.30;92.20;;;;;;5113005;28;19995;-72
2024/03/19 03:18:39;;;;;;;;;;;3.40;92.20;;;;;;5114180;28;19907;-72
2024/03/19 03:21:05;;;;;;;;;;;3.30;91.90;;;;;;5114174;28;19914;-72
2024/03/19 03:23:30;;;;;;;;;;;3.30;91.90;;;;;;5112815;28;19990;-72
2024/03/19 03:25:56;;;;;;;;;;;3.30;91.90;;;;;;5113910;28;20429;-72
2024/03/19 03:28:21;;;;;;;;;;;3.30;91.20;;;;;;5112645;28;19923;-73
2024/03/19 03:30:47;;;;;;;;;;;3.30;90.10;;;;;;5112712;28;19911;-72
2024/03/19 03:33:12;;;;;;;;;;;3.30;89.30;;;;;;5113646;28;19903;-72
2024/03/19 03:35:38;;;;;;;;;;;3.30;88.80;;;;;;5112570;28;20027;-72
2024/03/19 03:38:04;;;;;;;;;;;3.30;88.80;;;;;;5112803;28;19911;-71
2024/03/19 03:40:30;;;;;;;;;;;3.40;89.30;;;;;;5112564;28;19903;-72
2024/03/19 03:42:56;;;;;;;;;;;3.30;89.10;;;;;;5095483;28;20283;-73
2024/03/19 03:45:22;;;;;;;;;;;3.40;89.70;;;;;;5113646;28;20375;-72
2024/03/19 03:47:47;;;;;;;;;;;3.40;90.50;;;;;;5113796;28;20770;-72
2024/03/19 03:50:13;;;;;;;;;;;3.30;90.90;;;;;;5112338;28;20376;-72
2024/03/19 03:52:39;;;;;;;;;;;3.30;90.80;;;;;;5113647;28;20488;-73
2024/03/19 03:55:09;;;;;;;;;;;3.30;90.90;;;;;;5113618;28;19907;-73
2024/03/19 03:57:35;;;;;;;;;;;3.30;91.10;;;;;;5113529;28;19991;-72
2024/03/19 04:00:08;;;;;;;;;;;3.30;91.30;;;;;;5113368;28;20005;-73
2024/03/19 04:02:41;;;;;;;;;;;3.30;91.30;;;;;;5113236;28;20010;-72
2024/03/19 04:05:07;;;;;;;;;;;3.40;91.40;;;;;;5113299;28;20048;-73
2024/03/19 04:07:36;;;;;;;;;;;3.30;91.70;;;;;;5094772;28;19923;-73
2024/03/19 04:10:02;;;;;;;;;;;3.30;92.60;;;;;;5113352;28;20276;-72
2024/03/19 04:12:28;;;;;;;;;;;3.30;93.20;;;;;;5095169;28;19908;-73
2024/03/19 04:14:53;;;;;;;;;;;3.20;93.20;;;;;;5112099;28;20397;-73
2024/03/19 04:17:19;;;;;;;;;;;3.20;93.80;;;;;;5112453;28;19903;-73
2024/03/19 04:19:44;;;;;;;;;;;3.20;93.90;;;;;;5112674;28;19934;-72
2024/03/19 04:22:10;;;;;;;;;;;3.30;94.10;;;;;;5113037;28;20284;-73
2024/03/19 04:24:35;;;;;;;;;;;3.20;94.00;;;;;;5112764;28;19985;-73
2024/03/19 04:27:01;;;;;;;;;;;3.20;94.00;;;;;;5117254;28;19938;-73
2024/03/19 04:29:26;;;;;;;;;;;3.20;93.90;;;;;;5119704;28;19912;-74
2024/03/19 04:31:52;;;;;;;;;;;3.20;93.70;;;;;;5113957;28;19933;-72
2024/03/19 04:34:17;;;;;;;;;;;3.20;93.20;;;;;;5119739;28;19907;-73
2024/03/19 04:36:43;;;;;;;;;;;3.10;93.00;;;;;;5121329;28;20065;-73
2024/03/19 04:39:13;;;;;;;;;;;3.20;93.10;;;;;;5117617;28;19914;-73
2024/03/19 04:41:39;;;;;;;;;;;3.20;93.20;;;;;;5111950;28;19907;-72
2024/03/19 04:44:05;;;;;;;;;;;3.20;93.40;;;;;;5112990;28;19904;-72
2024/03/19 04:46:31;;;;;;;;;;;3.10;93.50;;;;;;5112105;28;19911;-71
2024/03/19 04:48:57;;;;;;;;;;;3.10;93.60;;;;;;5112438;28;20283;-73
2024/03/19 04:51:23;;;;;;;;;;;3.10;94.00;;;;;;5112389;28;20364;-72
2024/03/19 04:53:48;;;;;;;;;;;3.10;94.30;;;;;;5112407;28;19914;-72
2024/03/19 04:56:14;;;;;;;;;;;3.10;94.30;;;;;;5110778;28;19907;-72
2024/03/19 04:58:40;;;;;;;;;;;3.10;94.10;;;;;;5112198;28;19952;-72
2024/03/19 05:01:05;;;;;;;;;;;3.20;94.00;;;;;;5112062;28;20039;-71
2024/03/19 05:03:31;;;;;;;;;;;3.20;93.90;;;;;;5110697;28;19908;-72
2024/03/19 05:05:56;;;;;;;;;;;3.20;93.90;;;;;;5111938;28;19904;-72
2024/03/19 05:08:22;;;;;;;;;;;3.20;93.70;;;;;;5112118;28;19915;-72
2024/03/19 05:10:49;;;;;;;;;;;3.20;93.70;;;;;;5111741;28;20348;-71
2024/03/19 05:13:14;;;;;;;;;;;3.20;94.60;;;;;;5112131;28;19904;-72
2024/03/19 05:15:40;;;;;;;;;;;3.30;95.20;;;;;;5111891;28;20482;-72
2024/03/19 05:18:07;;;;;;;;;;;3.30;95.20;;;;;;5111781;28;19965;-72
2024/03/19 05:20:32;;;;;;;;;;;3.20;95.30;;;;;;5111887;28;19939;-72
2024/03/19 05:22:58;;;;;;;;;;;3.30;95.80;;;;;;5111805;28;19943;-72
2024/03/19 05:25:23;;;;;;;;;;;3.30;95.20;;;;;;5111080;28;19937;-71
2024/03/19 05:27:49;;;;;;;;;;;3.30;95.70;;;;;;5115995;28;20006;-73
2024/03/19 05:30:14;;;;;;;;;;;3.30;96.10;;;;;;5113438;28;20317;-71
2024/03/19 05:32:40;;;;;;;;;;;3.30;96.20;;;;;;5110058;28;20372;-72
2024/03/19 05:35:06;;;;;;;;;;;3.40;96.20;;;;;;5110280;28;20302;-72
2024/03/19 05:37:32;;;;;;;;;;;3.40;96.10;;;;;;5111312;28;19961;-72
2024/03/19 05:39:57;;;;;;;;;;;3.40;95.10;;;;;;5111422;28;19919;-72
2024/03/19 05:42:23;;;;;;;;;;;3.40;93.70;;;;;;5111427;28;19915;-72
2024/03/19 05:44:49;;;;;;;;;;;3.50;91.70;;;;;;5111042;28;19922;-72
2024/03/19 05:47:15;;;;;;;;;;;3.50;91.10;;;;;;5109725;28;19920;-72
2024/03/19 05:49:41;;;;;;;;;;;3.60;90.90;;;;;;5111239;28;19908;-73
2024/03/19 05:52:08;;;;;;;;;;;3.60;90.60;;;;;;5109770;28;19915;-74
2024/03/19 05:54:33;;;;;;;;;;;3.70;90.60;;;;;;5110042;28;19903;-72
2024/03/19 05:56:59;;;;;;;;;;;3.70;90.70;;;;;;5110748;28;20284;-73
2024/03/19 05:59:25;;;;;;;;;;;3.90;87.90;;;;;;5109739;28;19911;-73
2024/03/19 06:01:51;;;;;;;;;;;3.80;88.10;;;;;;5109672;28;19970;-73
2024/03/19 06:04:16;;;;;;;;;;;3.90;81.90;;;;;;5111186;28;19907;-72
2024/03/19 06:06:42;;;;;;;;;;;3.80;83.50;;;;;;5109343;28;19912;-72
2024/03/19 06:09:07;;;;;;;;;;;3.90;77.10;;;;;;5110997;28;19915;-72
2024/03/19 06:11:33;;;;;;;;;;;4.00;72.80;;;;;;5110999;28;20257;-73
2024/03/19 06:13:58;;;;;;;;;;;4.10;71.40;;;;;;5110810;28;19904;-71
2024/03/19 06:16:24;;;;;;;;;;;4.20;70.70;;;;;;5110932;28;19911;-71
2024/03/19 06:18:49;;;;;;;;;;;4.30;69.60;;;;;;5110672;28;19918;-71
2024/03/19 06:21:15;;;;;;;;;;;4.40;69.60;;;;;;5109424;28;20004;-72
2024/03/19 06:23:41;;;;;;;;;;;4.40;69.40;;;;;;5110561;28;19904;-72
2024/03/19 06:26:07;;;;;;;;;;;4.40;68.60;;;;;;5110369;28;19951;-71
2024/03/19 06:28:32;;;;;;;;;;;4.50;67.00;;;;;;5109398;28;20000;-72
2024/03/19 06:30:59;;;;;;;;;;;4.50;68.00;;;;;;5109418;28;19910;-72
2024/03/19 06:33:25;;;;;;;;;;;4.60;67.00;;;;;;5111099;28;20292;-72
2024/03/19 06:35:50;;;;;;;;;;;4.50;67.20;;;;;;5111547;28;20405;-73
2024/03/19 06:38:16;;;;;;;;;;;4.60;66.60;;;;;;5110657;28;20288;-73
2024/03/19 06:40:43;;;;;;;;;;;4.60;66.90;;;;;;5110489;28;19911;-71
2024/03/19 06:43:08;;;;;;;;;;;4.60;67.00;;;;;;5092240;28;19914;-71
2024/03/19 06:45:34;;;;;;;;;;;4.60;66.50;;;;;;5109111;28;19904;-73
2024/03/19 06:47:59;;;;;;;;;;;4.60;65.90;;;;;;5110025;28;19916;-72
2024/03/19 06:50:26;;;;;;;;;;;4.70;65.30;;;;;;5108452;28;19914;-72
2024/03/19 06:52:51;;;;;;;;;;;4.80;65.70;;;;;;5109122;28;19999;-71
2024/03/19 06:55:20;;;;;;;;;;;4.80;64.10;;;;;;5110304;28;20494;-72
2024/03/19 06:57:46;;;;;;;;;;;4.80;63.60;;;;;;5110315;28;19914;-73
2024/03/19 07:00:14;;;;;;;;;;;4.80;64.60;;;;;;5091943;28;19908;-72
2024/03/19 07:02:44;;;;;;;;;;;4.80;65.20;;;;;;5091907;28;19961;-72
2024/03/19 07:05:11;;;;;;;;;;;4.90;64.60;;;;;;5110225;28;20003;-71
2024/03/19 07:07:37;;;;;;;;;;;4.90;64.00;;;;;;5110109;28;20016;-72
2024/03/19 07:10:03;;;;;;;;;;;5.00;62.80;;;;;;5110068;28;19918;-72
2024/03/19 07:12:29;;;;;;;;;;;5.10;61.30;;;;;;5110345;28;19910;-72
2024/03/19 07:14:57;;;;;;;;;;;5.20;61.00;;;;;;5110040;28;20060;-72
2024/03/19 07:17:22;;;;;;;;;;;5.10;61.50;;;;;;5091329;28;19954;-72
2024/03/19 07:19:48;;;;;;;;;;;5.20;61.30;;;;;;5091799;28;19959;-73
2024/03/19 07:22:13;;;;;;;;;;;5.30;61.40;;;;;;5108786;28;19910;-72
2024/03/19 07:24:39;;;;;;;;;;;5.30;61.70;;;;;;5109796;28;19958;-73
2024/03/19 07:27:04;;;;;;;;;;;5.40;61.10;;;;;;5109818;28;19957;-73
2024/03/19 07:29:30;;;;;;;;;;;5.50;60.50;;;;;;5108790;28;19934;-72
2024/03/19 07:31:55;;;;;;;;;;;5.60;60.10;;;;;;5110052;28;20280;-73
2024/03/19 07:34:21;;;;;;;;;;;5.60;60.00;;;;;;5110124;28;20005;-73
2024/03/19 07:36:47;;;;;;;;;;;5.70;59.60;;;;;;5108905;28;20007;-73
2024/03/19 07:39:12;;;;;;;;;;;5.80;58.60;;;;;;5108669;28;20381;-73
2024/03/19 07:41:39;;;;;;;;;;;5.80;57.30;;;;;;5109139;28;20391;-72
2024/03/19 07:44:05;;;;;;;;;;;5.80;56.30;;;;;;5110166;28;19915;-73
2024/03/19 07:46:31;;;;;;;;;;;5.90;57.00;;;;;;5109944;28;19956;-73
2024/03/19 07:48:57;;;;;;;;;;;6.10;54.70;;;;;;5108791;28;19949;-73
2024/03/19 07:51:23;;;;;;;;;;;6.20;53.10;;;;;;5108824;28;19952;-73
2024/03/19 07:53:49;;;;;;;;;;;6.20;53.70;;;;;;5110303;28;19951;-73
2024/03/19 07:56:14;;;;;;;;;;;6.40;53.30;;;;;;5110034;28;20347;-73
2024/03/19 07:58:40;;;;;;;;;;;6.60;52.90;;;;;;5114473;28;19915;-73
2024/03/19 08:01:07;;;;;;;;;;;6.70;50.60;;;;;;5117385;28;19915;-73
2024/03/19 08:03:35;;;;;;;;;;;6.80;50.40;;;;;;5119335;28;19904;-74
2024/03/19 08:06:01;;;;;;;;;;;7.00;50.90;;;;;;5119766;28;19926;-74
2024/03/19 08:08:27;;;;;;;;;;;7.10;49.90;;;;;;5120334;28;19957;-73
2024/03/19 08:10:54;;;;;;;;;;;7.40;48.50;;;;;;5118446;28;19912;-72
2024/03/19 08:13:19;;;;;;;;;;;7.30;48.10;;;;;;5113702;28;19946;-71
2024/03/19 08:15:46;;;;;;;;;;;7.60;47.20;;;;;;5111998;28;19939;-73
2024/03/19 08:18:12;;;;;;;;;;;8.00;46.40;;;;;;5112111;28;19908;-74
2024/03/19 08:20:39;;;;;;;;;;;8.80;45.40;;;;;;5113056;28;19912;-74
2024/03/19 08:23:04;;;;;;;;;;;10.00;43.00;;;;;;5113370;28;19986;-72
2024/03/19 08:25:31;;;;;;;;;;;11.50;39.20;;;;;;5111344;28;19927;-73
2024/03/19 08:27:56;;;;;;;;;;;12.50;35.10;;;;;;5111396;28;19951;-74
2024/03/19 08:30:22;;;;;;;;;;;13.20;32.80;;;;;;5111719;28;19950;-73
2024/03/19 08:32:48;;;;;;;;;;;12.80;32.60;;;;;;5111459;28;20387;-72
2024/03/19 08:35:14;;;;;;;;;;;12.90;31.20;;;;;;5112641;28;19908;-73
2024/03/19 08:37:41;;;;;;;;;;;13.60;29.50;;;;;;5111369;28;19923;-73
2024/03/19 08:40:07;;;;;;;;;;;13.50;30.40;;;;;;5112549;28;19904;-73
2024/03/19 08:42:33;;;;;;;;;;;13.30;30.40;;;;;;5112592;28;19915;-74
2024/03/19 08:44:59;;;;;;;;;;;12.80;31.60;;;;;;5112574;28;20402;-72
2024/03/19 08:47:24;;;;;;;;;;;13.00;30.60;;;;;;5110753;28;20017;-73
2024/03/19 08:49:50;;;;;;;;;;;13.10;31.40;;;;;;5112119;28;20387;-73
2024/03/19 08:52:16;;;;;;;;;;;13.40;30.00;;;;;;5112416;28;19927;-73
2024/03/19 08:54:42;;;;;;;;;;;13.60;29.50;;;;;;5112313;28;20048;-74
2024/03/19 08:57:10;;;;;;;;;;;13.30;29.90;;;;;;5112204;28;20522;-73
2024/03/19 08:59:36;;;;;;;;;;;13.00;30.90;;;;;;5112156;28;20407;-73
2024/03/19 09:02:04;;;;;;;;;;;13.40;31.20;;;;;;5111859;28;19904;-72
2024/03/19 09:04:30;;;;;;;;;;;13.70;30.50;;;;;;5110468;28;19907;-73
2024/03/19 09:06:56;;;;;;;;;;;14.00;30.20;;;;;;5110232;28;20002;-73
2024/03/19 09:09:21;;;;;;;;;;;14.30;28.80;;;;;;5110118;28;20367;-73
2024/03/19 09:11:51;;;;;;;;;;;14.20;29.70;;;;;;5110563;28;19986;-73
2024/03/19 09:14:17;;;;;;;;;;;14.70;29.20;;;;;;5110252;28;19904;-72
2024/03/19 09:16:43;;;;;;;;;;;14.80;29.30;;;;;;5111751;28;19921;-74
2024/03/19 09:19:08;;;;;;;;;;;14.70;29.10;;;;;;5110510;28;19933;-72
2024/03/19 09:21:34;;;;;;;;;;;14.30;28.30;;;;;;5111903;28;19953;-73
2024/03/19 09:24:00;;;;;;;;;;;13.80;28.50;;;;;;5111740;28;19912;-73
2024/03/19 09:26:26;;;;;;;;;;;13.60;28.60;;;;;;5093317;28;19916;-73
2024/03/19 09:28:51;;;;;;;;;;;12.70;29.60;;;;;;5111408;28;19916;-73
2024/03/19 09:31:17;;;;;;;;;;;12.10;30.20;;;;;;5111413;28;19912;-72
2024/03/19 09:33:43;;;;;;;;;;;11.60;32.10;;;;;;5111612;28;20001;-72
2024/03/19 09:36:09;;;;;;;;;;;11.50;30.20;;;;;;5111294;28;20419;-73
2024/03/19 09:38:34;;;;;;;;;;;11.40;31.40;;;;;;5109815;28;19990;-71
2024/03/19 09:41:03;;;;;;;;;;;11.40;31.10;;;;;;5111011;28;19907;-72
2024/03/19 09:43:32;;;;;;;;;;;11.40;31.40;;;;;;5111278;28;19907;-72
2024/03/19 09:45:59;;;;;;;;;;;11.20;31.90;;;;;;5111093;28;19918;-73
2024/03/19 09:48:24;;;;;;;;;;;11.20;30.30;;;;;;5111314;28;19911;-73
2024/03/19 09:50:51;;;;;;;;;;;10.90;31.80;;;;;;5111195;28;19915;-73
2024/03/19 09:53:21;;;;;;;;;;;11.30;33.40;;;;;;5092968;28;19908;-73
2024/03/19 09:55:47;;;;;;;;;;;12.30;32.70;;;;;;5109787;28;19908;-73
2024/03/19 09:58:13;;;;;;;;;;;13.50;31.20;;;;;;5092866;28;20402;-70
2024/03/19 10:00:43;;;;;;;;;;;14.00;30.30;;;;;;5092822;28;19915;-72
2024/03/19 10:03:08;;;;;;;;;;;14.60;29.40;;;;;;5110994;28;19953;-74
2024/03/19 10:05:34;;;;;;;;;;;14.50;28.70;;;;;;5111162;28;19908;-72
2024/03/19 10:07:59;;;;;;;;;;;13.80;29.10;;;;;;5109525;28;20469;-71
2024/03/19 10:10:26;;;;;;;;;;;13.90;29.50;;;;;;5110956;28;19908;-72
2024/03/19 10:12:51;;;;;;;;;;;14.20;29.00;;;;;;5109533;28;19939;-71
2024/03/19 10:15:18;;;;;;;;;;;14.80;28.20;;;;;;5110963;28;19987;-72
2024/03/19 10:17:44;;;;;;;;;;;15.00;27.60;;;;;;5109509;28;19907;-71
2024/03/19 10:20:11;;;;;;;;;;;14.30;26.80;;;;;;5110650;28;20107;-72
2024/03/19 10:22:37;;;;;;;;;;;13.80;27.70;;;;;;5092398;28;20280;-72
2024/03/19 10:25:04;;;;;;;;;;;13.70;28.40;;;;;;5109741;28;20466;-71
2024/03/19 10:27:29;;;;;;;;;;;13.50;27.40;;;;;;5110439;28;19916;-72
2024/03/19 10:29:56;;;;;;;;;;;13.40;27.30;;;;;;5110522;28;19930;-72
2024/03/19 10:32:22;;;;;;;;;;;13.50;27.60;;;;;;5110881;28;20348;-71
2024/03/19 10:34:49;;;;;;;;;;;13.50;27.00;;;;;;5110507;28;19928;-71
2024/03/19 10:37:16;;;;;;;;;;;13.30;27.50;;;;;;5110414;28;19904;-71
2024/03/19 10:39:43;;;;;;;;;;;13.50;26.80;;;;;;5110166;28;20291;-71
2024/03/19 10:42:11;;;;;;;;;;;13.60;27.30;;;;;;5110040;28;19911;-71
2024/03/19 10:44:38;;;;;;;;;;;14.00;28.00;;;;;;5108381;28;19934;-71
2024/03/19 10:47:05;;;;;;;;;;;14.40;28.70;;;;;;5110206;28;19907;-70
2024/03/19 10:49:32;;;;;;;;;;;14.50;28.10;;;;;;5110464;28;19957;-72
2024/03/19 10:52:16;;;;;;;;;;;14.40;28.50;;;;;;5109778;28;19919;-72
2024/03/19 10:54:43;;;;;;;;;;;13.80;28.60;;;;;;5091970;28;20358;-72
2024/03/19 10:57:14;;;;;;;;;;;13.30;28.70;;;;;;5110049;28;19957;-75
2024/03/19 10:59:40;;;;;;;;;;;12.70;28.40;;;;;;5108909;28;19903;-75
2024/03/19 11:02:06;;;;;;;;;;;12.00;29.20;;;;;;5110180;28;20384;-74
2024/03/19 11:04:32;;;;;;;;;;;11.40;31.20;;;;;;5110353;28;19939;-75
2024/03/19 11:07:01;;;;;;;;;;;10.80;32.20;;;;;;5111100;28;20384;-71
2024/03/19 11:09:28;;;;;;;;;;;10.70;33.10;;;;;;5109605;28;19908;-72
2024/03/19 11:11:54;;;;;;;;;;;10.40;32.60;;;;;;5092002;28;20785;-72
2024/03/19 11:14:21;;;;;;;;;;;10.30;33.90;;;;;;5108895;28;19963;-71
2024/03/19 11:16:46;;;;;;;;;;;10.60;31.70;;;;;;5110201;28;19954;-72
2024/03/19 11:19:16;;;;;;;;;;;10.70;32.90;;;;;;5108797;28;19955;-72
2024/03/19 11:21:42;;;;;;;;;;;10.80;32.60;;;;;;5092110;28;20321;-73
2024/03/19 11:24:22;;;;;;;;;;;10.80;33.00;;;;;;5110397;28;20378;-72
2024/03/19 11:26:47;;;;;;;;;;;10.90;32.30;;;;;;5092225;28;19907;-71
2024/03/19 11:29:14;;;;;;;;;;;10.90;33.40;;;;;;5110647;28;19907;-71
2024/03/19 11:31:43;;;;;;;;;;;10.90;32.90;;;;;;5110057;28;19911;-73
2024/03/19 11:34:12;;;;;;;;;;;11.00;31.50;;;;;;5111930;28;19926;-73
2024/03/19 11:36:38;;;;;;;;;;;10.80;30.30;;;;;;5115884;28;19907;-71
2024/03/19 11:39:07;;;;;;;;;;;10.60;31.60;;;;;;5115739;28;19946;-73
2024/03/19 11:41:32;;;;;;;;;;;10.60;32.70;;;;;;5113822;28;19927;-72
2024/03/19 11:43:58;;;;;;;;;;;10.60;32.40;;;;;;5112528;28;20537;-72
2024/03/19 11:46:25;;;;;;;;;;;10.60;32.00;;;;;;5113698;28;19907;-72
2024/03/19 11:48:50;;;;;;;;;;;10.50;32.40;;;;;;5113394;28;20011;-73
2024/03/19 11:51:16;;;;;;;;;;;10.50;33.30;;;;;;5112247;28;19961;-73
2024/03/19 11:53:41;;;;;;;;;;;10.50;33.30;;;;;;5113652;28;20292;-72
2024/03/19 11:56:09;;;;;;;;;;;10.60;33.20;;;;;;5112243;28;19907;-72
2024/03/19 11:58:38;;;;;;;;;;;10.50;31.30;;;;;;5113538;28;20281;-72
2024/03/19 12:01:05;;;;;;;;;;;10.50;32.10;;;;;;5112116;28;19950;-73
2024/03/19 12:03:31;;;;;;;;;;;10.50;31.60;;;;;;5113436;28;19907;-73
2024/03/19 12:05:56;;;;;;;;;;;10.40;30.10;;;;;;5113244;28;19941;-73
2024/03/19 12:08:22;;;;;;;;;;;10.40;30.70;;;;;;5112080;28;20333;-69
2024/03/19 12:10:48;;;;;;;;;;;10.20;31.70;;;;;;5113346;28;20322;-73
2024/03/19 12:13:14;;;;;;;;;;;10.20;32.30;;;;;;5113239;28;19914;-72
2024/03/19 12:15:39;;;;;;;;;;;10.10;32.20;;;;;;5112177;28;19950;-72
2024/03/19 12:18:08;;;;;;;;;;;10.20;33.10;;;;;;5111793;28;20390;-73
2024/03/19 12:20:35;;;;;;;;;;;10.40;34.70;;;;;;5094672;28;19908;-73
2024/03/19 12:23:00;;;;;;;;;;;10.70;35.30;;;;;;5112964;28;19915;-74
2024/03/19 12:25:28;;;;;;;;;;;10.80;35.50;;;;;;5112283;28;19916;-73
2024/03/19 12:27:54;;;;;;;;;;;10.80;35.50;;;;;;5111490;28;19985;-74
2024/03/19 12:30:20;;;;;;;;;;;11.00;33.40;;;;;;5111268;28;20367;-74
2024/03/19 12:32:47;;;;;;;;;;;11.00;33.20;;;;;;5094455;28;20616;-73
2024/03/19 12:35:16;;;;;;;;;;;10.90;32.30;;;;;;5111348;28;19903;-73
2024/03/19 12:37:42;;;;;;;;;;;10.80;34.60;;;;;;5094336;28;19914;-73
2024/03/19 12:40:11;;;;;;;;;;;10.70;34.10;;;;;;5111354;28;20006;-73
2024/03/19 12:42:37;;;;;;;;;;;10.80;33.70;;;;;;5112565;28;19904;-74
2024/03/19 12:45:03;;;;;;;;;;;10.90;32.70;;;;;;5112641;28;19987;-72
2024/03/19 12:47:29;;;;;;;;;;;10.90;32.90;;;;;;5111641;28;19915;-73
2024/03/19 12:49:54;;;;;;;;;;;10.70;32.40;;;;;;5110951;28;19908;-72
2024/03/19 12:52:23;;;;;;;;;;;10.80;32.00;;;;;;5112452;28;20006;-73
2024/03/19 12:54:48;;;;;;;;;;;10.80;32.00;;;;;;5111020;28;19952;-72
2024/03/19 12:57:14;;;;;;;;;;;10.60;31.80;;;;;;5110903;28;19924;-74
2024/03/19 12:59:40;;;;;;;;;;;10.60;32.40;;;;;;5110730;28;19910;-72
2024/03/19 13:02:06;;;;;;;;;;;10.60;33.30;;;;;;5110449;28;19915;-75
2024/03/19 13:04:31;;;;;;;;;;;10.80;32.50;;;;;;5112287;28;19904;-72
2024/03/19 13:06:57;;;;;;;;;;;10.70;31.10;;;;;;5093808;28;20001;-73
2024/03/19 13:09:25;;;;;;;;;;;10.70;32.50;;;;;;5111795;28;20458;-72
2024/03/19 13:11:51;;;;;;;;;;;10.90;33.30;;;;;;5110768;28;19908;-72
2024/03/19 13:14:17;;;;;;;;;;;11.00;33.00;;;;;;5111888;28;19910;-72
2024/03/19 13:16:42;;;;;;;;;;;11.10;31.70;;;;;;5109909;28;19977;-73
2024/03/19 13:19:08;;;;;;;;;;;11.10;31.10;;;;;;5111972;28;19911;-72
2024/03/19 13:21:33;;;;;;;;;;;11.20;31.40;;;;;;5111695;28;19910;-72
2024/03/19 13:23:59;;;;;;;;;;;11.20;30.60;;;;;;5110312;28;19907;-73
2024/03/19 13:26:24;;;;;;;;;;;11.20;30.10;;;;;;5110226;28;20522;-74
2024/03/19 13:28:50;;;;;;;;;;;11.20;30.20;;;;;;5110482;28;20410;-73
2024/03/19 13:31:15;;;;;;;;;;;11.10;30.20;;;;;;5111593;28;19908;-72
2024/03/19 13:33:41;;;;;;;;;;;11.10;30.10;;;;;;5111384;28;19941;-74
2024/03/19 13:36:08;;;;;;;;;;;11.00;30.80;;;;;;5111505;28;19937;-72
2024/03/19 13:38:35;;;;;;;;;;;11.00;30.60;;;;;;5110038;28;20345;-74
2024/03/19 13:41:01;;;;;;;;;;;11.00;31.20;;;;;;5111613;28;19910;-74
2024/03/19 13:43:26;;;;;;;;;;;11.00;31.10;;;;;;5111423;28;20292;-74
2024/03/19 13:45:57;;;;;;;;;;;11.00;29.90;;;;;;5109879;28;20399;-73
2024/03/19 13:48:23;;;;;;;;;;;11.10;29.60;;;;;;5109914;28;20027;-74
2024/03/19 13:50:48;;;;;;;;;;;11.10;29.20;;;;;;5112261;28;19920;-75
2024/03/19 13:53:15;;;;;;;;;;;11.20;29.70;;;;;;5111908;28;20386;-74
2024/03/19 13:55:42;;;;;;;;;;;11.10;30.20;;;;;;5109998;28;19903;-75
2024/03/19 13:58:08;;;;;;;;;;;11.00;30.30;;;;;;5109738;28;19908;-74
2024/03/19 14:00:35;;;;;;;;;;;11.10;29.60;;;;;;5110952;28;19911;-74
2024/03/19 14:03:00;;;;;;;;;;;10.90;29.30;;;;;;5111053;28;19907;-74
2024/03/19 14:05:32;;;;;;;;;;;10.70;29.50;;;;;;5109407;28;19904;-73
2024/03/19 14:08:00;;;;;;;;;;;10.70;29.10;;;;;;5110760;28;20407;-74
2024/03/19 14:10:26;;;;;;;;;;;10.70;30.10;;;;;;5103892;28;19930;-73
2024/03/19 14:12:52;;;;;;;;;;;10.90;30.40;;;;;;5110649;28;20399;-73
2024/03/19 14:15:18;;;;;;;;;;;11.00;29.70;;;;;;5110910;28;19908;-73
2024/03/19 14:17:45;;;;;;;;;;;11.10;29.20;;;;;;5110901;28;19907;-72